Murcia, Spain

9:44 AM CEST on April 18, 2015 (GMT +0200)
Murcia capital | | Change Station
CLOSE
Current Station
Personal Weather Station
Location: Murcia, MURCIA
Elevation: 154 ft
Nearby Weather Stations

Elev 154 ft 37.99 °N, 1.14 °W | Updated 45 seconds ago

Clear
Clear
58.7 °F
Feels Like 58.7 °F
N
0.0
Wind Variable Wind from SW
Gusts 2.0 mph

Today
High -- | Low -- °F
--% Chance of Precip.
Yesterday
High -- | Low -- °F
Precip. -- in
7:25 AM 8:43 PM
Waning Crescent, 0% visible
Pressure 29.98 in
Visibility -9999.0 miles
Clouds
Dew Point 50 °F
Humidity 74%
Rainfall 0.00 in
Snow Depth Not available.
UV 16.0 out of 12
Pollen Not available.
Air Quality Not available.
Flu Activity Not available.
METAR LEAL 180730Z 00000KT CAVOK 17/10 Q1015 NOSIG

More Conditions Fewer Conditions

Pressure 29.98 in
Visibility -9999.0 miles
Clouds
Dew Point 50 °F
Humidity 74%
Rainfall 0.00 in
Snow Depth Not available.
UV 16.0 out of 12
Pollen Not available.
Air Quality Not available.
Flu Activity Not available.
METAR LEAL 180730Z 00000KT CAVOK 17/10 Q1015 NOSIG

More Conditions Fewer Conditions

10-Day Weather Forecast

Almanac

Astronomy

Apr. 18, 2015 Rise Set
Actual Time
Civil Twilight
Nautical Twilight
Astronomical Twilight
Moon
Length of Visible Light
Length of Day
Tomorrow will be .
, % of the Moon is Illuminated

Today's Extremes

Country Highs Country Lows

Community

WunderPhotos

Upload Photos

1,814,345 photos uploaded!

WunderBlogs® & News

Nearby

Air Quality

  Air Quality AQ Index Pollutant
Not available.

Snow Depth

Station Depth Elevation

Earthquake Activity

City Distance Mag. Time & Date
Minimum magnitude displayed is 2.5.

Coastal Water Temperatures

Place Temperature

Stations

Nearby Weather Stations

Station Location Temp. Windchill Dew Point Humidity Wind Precip. Elev Updated Type